This is the latest recevied weather packets stored in our database for station/object 5B4APJ-13. If no packets are shown the sender has not sent any weather packets the latest 10 day(s).
| Time | Temp. | Humidity | Pressure | Rain* | Wind** | Luminosity | Snow |
|---|---|---|---|---|---|---|---|
| 1777291631 | 23.89° C | 50% | 1012.7 hPa | 0 mm | 1.34 m/s, 121° | 644 W/m² | - |
| 1777291330 | 23.33° C | 51% | 1013.2 hPa | 0 mm | 1.34 m/s, 232° | 653 W/m² | - |
| 1777291031 | 23.33° C | 49% | 1013.1 hPa | 0 mm | 2.24 m/s, 199° | 670 W/m² | - |
| 1777290731 | 22.78° C | 53% | 1013.3 hPa | 0 mm | 3.58 m/s, 99° | 680 W/m² | - |
| 1777290431 | 23.33° C | 50% | 1013.3 hPa | 0 mm | 2.68 m/s, 119° | 698 W/m² | - |
| 1777290130 | 24.44° C | 50% | 1013.3 hPa | 0 mm | 0.45 m/s, 113° | 707 W/m² | - |
| 1777289830 | 24.44° C | 49% | 1013.4 hPa | 0 mm | 0.89 m/s, 206° | 725 W/m² | - |
| 1777289531 | 23.89° C | 48% | 1013.5 hPa | 0 mm | 0.89 m/s, 161° | 737 W/m² | - |
| 1777289230 | 22.78° C | 52% | 1013.4 hPa | 0 mm | 0.89 m/s, 262° | 745 W/m² | - |
| 1777288930 | 22.78° C | 51% | 1013.7 hPa | 0 mm | 3.58 m/s, 149° | 752 W/m² | - |
| 1777288630 | 22.78° C | 54% | 1013.5 hPa | 0 mm | 1.79 m/s, 213° | 762 W/m² | - |
| 1777288331 | 22.78° C | 55% | 1013.4 hPa | 0 mm | 1.34 m/s, 87° | 767 W/m² | - |
| 1777288030 | 22.78° C | 54% | 1013.5 hPa | 0 mm | 1.34 m/s, 178° | 777 W/m² | - |
| 1777287730 | 22.78° C | 56% | 1013.7 hPa | 0 mm | 1.34 m/s, 104° | 776 W/m² | - |
| 1777287431 | 22.78° C | 55% | 1013.5 hPa | 0 mm | 1.34 m/s, 96° | 791 W/m² | - |
| 1777287130 | 22.78° C | 55% | 1013.9 hPa | 0 mm | 1.79 m/s, 209° | 786 W/m² | - |
| 1777286830 | 22.78° C | 58% | 1013.7 hPa | 0 mm | 1.34 m/s, 141° | 796 W/m² | - |
| 1777286530 | 22.22° C | 60% | 1013.7 hPa | 0 mm | 1.79 m/s, 193° | 792 W/m² | - |
| 1777286230 | 23.33° C | 57% | 1013.5 hPa | 0 mm | 1.79 m/s, 88° | 801 W/m² | - |
| 1777285930 | 22.78° C | 59% | 1013.8 hPa | 0 mm | 0.89 m/s, 186° | 804 W/m² | - |
| 1777285630 | 22.22° C | 61% | 1013.9 hPa | 0 mm | 1.34 m/s, 176° | 811 W/m² | - |
| 1777285330 | 21.67° C | 64% | 1013.8 hPa | 0 mm | 1.34 m/s, 147° | 804 W/m² | - |
| 1777285030 | 22.78° C | 60% | 1013.9 hPa | 0 mm | 4.47 m/s, 105° | 827 W/m² | - |
| 1777284730 | 22.78° C | 60% | 1014 hPa | 0 mm | 0.89 m/s, 217° | 825 W/m² | - |
| 1777284430 | 21.67° C | 63% | 1014 hPa | 0 mm | 1.79 m/s, 99° | 857 W/m² | - |
* Rain latest hour (hover to see other rain measurements)
** Current wind speed in m/s (hover to see current wind gust speed)